sensor_id;sensor_type;location;lat;lon;timestamp;pressure;altitude;pressure_sealevel;temperature;humidity
36062;BME280;22123;52.412;20.970;2024-01-10T00:02:02;102514.63;;;-9.53;100.00
36062;BME280;22123;52.412;20.970;2024-01-10T00:04:28;102526.81;;;-9.57;100.00
36062;BME280;22123;52.412;20.970;2024-01-10T00:06:55;102513.69;;;-9.68;100.00
36062;BME280;22123;52.412;20.970;2024-01-10T00:09:20;102528.56;;;-9.51;100.00
36062;BME280;22123;52.412;20.970;2024-01-10T00:11:46;102557.28;;;-9.45;100.00
36062;BME280;22123;52.412;20.970;2024-01-10T00:14:12;102512.81;;;-9.71;100.00
36062;BME280;22123;52.412;20.970;2024-01-10T00:16:38;102560.81;;;-9.37;100.00
36062;BME280;22123;52.412;20.970;2024-01-10T00:19:04;102559.03;;;-9.42;100.00
36062;BME280;22123;52.412;20.970;2024-01-10T00:21:30;102532.88;;;-9.63;100.00
36062;BME280;22123;52.412;20.970;2024-01-10T00:23:57;102566.88;;;-9.36;100.00
36062;BME280;22123;52.412;20.970;2024-01-10T00:26:23;102563.41;;;-9.35;100.00
36062;BME280;22123;52.412;20.970;2024-01-10T00:28:48;102564.25;;;-9.41;100.00
36062;BME280;22123;52.412;20.970;2024-01-10T00:31:14;102570.34;;;-9.39;100.00
36062;BME280;22123;52.412;20.970;2024-01-10T00:33:40;102578.19;;;-9.34;100.00
36062;BME280;22123;52.412;20.970;2024-01-10T00:36:06;102549.44;;;-9.53;100.00
36062;BME280;22123;52.412;20.970;2024-01-10T00:38:32;102530.25;;;-9.67;100.00
36062;BME280;22123;52.412;20.970;2024-01-10T00:40:58;102530.25;;;-9.67;100.00
36062;BME280;22123;52.412;20.970;2024-01-10T00:43:25;102509.31;;;-9.80;100.00
36062;BME280;22123;52.412;20.970;2024-01-10T00:45:51;102564.25;;;-9.41;100.00
36062;BME280;22123;52.412;20.970;2024-01-10T00:48:17;102553.81;;;-9.42;100.00
36062;BME280;22123;52.412;20.970;2024-01-10T00:50:43;102537.28;;;-9.46;100.00
36062;BME280;22123;52.412;20.970;2024-01-10T00:53:09;102510.25;;;-9.65;100.00
36062;BME280;22123;52.412;20.970;2024-01-10T00:55:35;102484.94;;;-9.85;100.00
36062;BME280;22123;52.412;20.970;2024-01-10T00:58:01;102507.63;;;-9.68;100.00
36062;BME280;22123;52.412;20.970;2024-01-10T01:00:27;102472.78;;;-9.89;100.00
36062;BME280;22123;52.412;20.970;2024-01-10T01:02:53;102487.56;;;-9.83;100.00
36062;BME280;22123;52.412;20.970;2024-01-10T01:05:19;102544.22;;;-9.47;100.00
36062;BME280;22123;52.412;20.970;2024-01-10T01:07:45;102488.47;;;-9.73;100.00
36062;BME280;22123;52.412;20.970;2024-01-10T01:10:11;102487.59;;;-9.77;100.00
36062;BME280;22123;52.412;20.970;2024-01-10T01:12:37;102484.09;;;-9.82;100.00
36062;BME280;22123;52.412;20.970;2024-01-10T01:15:03;102525.06;;;-9.58;100.00
36062;BME280;22123;52.412;20.970;2024-01-10T01:17:29;102504.09;;;-9.78;100.00
36062;BME280;22123;52.412;20.970;2024-01-10T01:19:55;102478.81;;;-9.93;100.00
36062;BME280;22123;52.412;20.970;2024-01-10T01:22:21;102463.19;;;-9.94;100.00
36062;BME280;22123;52.412;20.970;2024-01-10T01:24:46;102478.88;;;-9.82;100.00
36062;BME280;22123;52.412;20.970;2024-01-10T01:27:12;102493.69;;;-9.72;100.00
36062;BME280;22123;52.412;20.970;2024-01-10T01:29:38;102465.84;;;-9.84;100.00
36062;BME280;22123;52.412;20.970;2024-01-10T01:32:04;102469.34;;;-9.79;100.00
36062;BME280;22123;52.412;20.970;2024-01-10T01:34:30;102522.47;;;-9.53;100.00
36062;BME280;22123;52.412;20.970;2024-01-10T01:36:56;102488.47;;;-9.73;100.00
36062;BME280;22123;52.412;20.970;2024-01-10T01:39:22;102470.19;;;-9.83;100.00
36062;BME280;22123;52.412;20.970;2024-01-10T01:41:48;102460.63;;;-9.81;100.00
36062;BME280;22123;52.412;20.970;2024-01-10T01:44:14;102512.88;;;-9.56;100.00
36062;BME280;22123;52.412;20.970;2024-01-10T01:46:39;102491.13;;;-9.69;100.00
36062;BME280;22123;52.412;20.970;2024-01-10T01:49:06;102498.97;;;-9.63;100.00
36062;BME280;22123;52.412;20.970;2024-01-10T01:51:33;102434.47;;;-10.01;100.00
36062;BME280;22123;52.412;20.970;2024-01-10T01:54:03;102456.25;;;-9.86;100.00
36062;BME280;22123;52.412;20.970;2024-01-10T01:56:30;102481.56;;;-9.65;100.00
36062;BME280;22123;52.412;20.970;2024-01-10T01:58:56;102472.88;;;-9.66;100.00
36062;BME280;22123;52.412;20.970;2024-01-10T02:01:22;102451.09;;;-9.83;100.00
36062;BME280;22123;52.412;20.970;2024-01-10T02:03:47;102453.66;;;-9.88;100.00
36062;BME280;22123;52.412;20.970;2024-01-10T02:06:13;102484.16;;;-9.64;100.00
36062;BME280;22123;52.412;20.970;2024-01-10T02:08:39;102456.25;;;-9.89;100.00
36062;BME280;22123;52.412;20.970;2024-01-10T02:11:05;102488.47;;;-9.73;100.00
36062;BME280;22123;52.412;20.970;2024-01-10T02:13:32;102483.31;;;-9.63;100.00
36062;BME280;22123;52.412;20.970;2024-01-10T02:15:59;102505.94;;;-9.55;100.00
36062;BME280;22123;52.412;20.970;2024-01-10T02:18:25;102487.63;;;-9.71;100.00
36062;BME280;22123;52.412;20.970;2024-01-10T02:20:51;102485.03;;;-9.68;100.00
36062;BME280;22123;52.412;20.970;2024-01-10T02:23:17;102491.13;;;-9.67;100.00
36062;BME280;22123;52.412;20.970;2024-01-10T02:25:43;102500.72;;;-9.60;100.00
36062;BME280;22123;52.412;20.970;2024-01-10T02:28:10;102451.03;;;-9.86;100.00
36062;BME280;22123;52.412;20.970;2024-01-10T02:30:36;102438.00;;;-9.85;100.00
36062;BME280;22123;52.412;20.970;2024-01-10T02:33:02;102445.88;;;-9.80;100.00
36062;BME280;22123;52.412;20.970;2024-01-10T02:35:28;102454.56;;;-9.76;100.00
36062;BME280;22123;52.412;20.970;2024-01-10T02:37:54;102425.03;;;-9.82;100.00
36062;BME280;22123;52.412;20.970;2024-01-10T02:40:20;102450.19;;;-9.81;100.00
36062;BME280;22123;52.412;20.970;2024-01-10T02:42:46;102437.19;;;-9.77;100.00
36062;BME280;22123;52.412;20.970;2024-01-10T02:45:12;102480.72;;;-9.53;100.00
36062;BME280;22123;52.412;20.970;2024-01-10T02:47:38;102472.91;;;-9.59;100.00
36062;BME280;22123;52.412;20.970;2024-01-10T02:50:05;102477.25;;;-9.60;100.00
36062;BME280;22123;52.412;20.970;2024-01-10T02:52:31;102458.06;;;-9.71;100.00
36062;BME280;22123;52.412;20.970;2024-01-10T02:54:57;102433.69;;;-9.86;100.00
36062;BME280;22123;52.412;20.970;2024-01-10T02:57:23;102413.69;;;-9.93;100.00
36062;BME280;22123;52.412;20.970;2024-01-10T02:59:49;102443.28;;;-9.72;100.00
36062;BME280;22123;52.412;20.970;2024-01-10T03:02:15;102440.69;;;-9.65;100.00
36062;BME280;22123;52.412;20.970;2024-01-10T03:04:41;102465.09;;;-9.53;100.00
36062;BME280;22123;52.412;20.970;2024-01-10T03:07:07;102462.47;;;-9.59;100.00
36062;BME280;22123;52.412;20.970;2024-01-10T03:09:33;102461.56;;;-9.62;100.00
36062;BME280;22123;52.412;20.970;2024-01-10T03:11:59;102411.91;;;-9.94;100.00
36062;BME280;22123;52.412;20.970;2024-01-10T03:14:25;102427.66;;;-9.74;100.00
36062;BME280;22123;52.412;20.970;2024-01-10T03:16:51;102450.28;;;-9.61;100.00
36062;BME280;22123;52.412;20.970;2024-01-10T03:19:17;102441.56;;;-9.70;100.00
36062;BME280;22123;52.412;20.970;2024-01-10T03:21:44;102398.88;;;-9.99;100.00
36062;BME280;22123;52.412;20.970;2024-01-10T03:24:10;102475.50;;;-9.59;100.00
36062;BME280;22123;52.412;20.970;2024-01-10T03:26:35;102385.84;;;-10.03;100.00
36062;BME280;22123;52.412;20.970;2024-01-10T03:29:01;102413.72;;;-9.77;100.00
36062;BME280;22123;52.412;20.970;2024-01-10T03:31:28;102398.94;;;-9.83;100.00
36062;BME280;22123;52.412;20.970;2024-01-10T03:33:54;102455.56;;;-9.50;100.00
36062;BME280;22123;52.412;20.970;2024-01-10T03:36:20;102365.84;;;-10.01;100.00
36062;BME280;22123;52.412;20.970;2024-01-10T03:38:46;102446.84;;;-9.49;100.00
36062;BME280;22123;52.412;20.970;2024-01-10T03:41:18;102445.97;;;-9.54;100.00
36062;BME280;22123;52.412;20.970;2024-01-10T03:43:44;102394.56;;;-9.92;100.00
36062;BME280;22123;52.412;20.970;2024-01-10T03:46:11;102458.13;;;-9.56;100.00
36062;BME280;22123;52.412;20.970;2024-01-10T03:48:37;102387.59;;;-9.99;100.00
36062;BME280;22123;52.412;20.970;2024-01-10T03:51:03;102431.09;;;-9.78;100.00
36062;BME280;22123;52.412;20.970;2024-01-10T03:53:30;102415.44;;;-9.81;100.00
36062;BME280;22123;52.412;20.970;2024-01-10T03:55:56;102416.31;;;-9.82;100.00
36062;BME280;22123;52.412;20.970;2024-01-10T03:58:23;102438.13;;;-9.60;100.00
36062;BME280;22123;52.412;20.970;2024-01-10T04:00:49;102401.56;;;-9.83;100.00
36062;BME280;22123;52.412;20.970;2024-01-10T04:03:15;102410.25;;;-9.78;100.00
36062;BME280;22123;52.412;20.970;2024-01-10T04:05:41;102432.88;;;-9.62;100.00
36062;BME280;22123;52.412;20.970;2024-01-10T04:08:07;102412.00;;;-9.72;100.00
36062;BME280;22123;52.412;20.970;2024-01-10T04:10:33;102409.38;;;-9.83;100.00
36062;BME280;22123;52.412;20.970;2024-01-10T04:12:59;102398.06;;;-9.87;100.00
36062;BME280;22123;52.412;20.970;2024-01-10T04:15:25;102360.63;;;-10.07;100.00
36062;BME280;22123;52.412;20.970;2024-01-10T04:17:50;102344.97;;;-10.12;100.00
36062;BME280;22123;52.412;20.970;2024-01-10T04:20:16;102398.06;;;-9.81;100.00
36062;BME280;22123;52.412;20.970;2024-01-10T04:22:42;102368.47;;;-10.00;100.00
36062;BME280;22123;52.412;20.970;2024-01-10T04:25:08;102346.75;;;-10.06;100.00
36062;BME280;22123;52.412;20.970;2024-01-10T04:27:34;102379.78;;;-9.93;100.00
36062;BME280;22123;52.412;20.970;2024-01-10T04:30:00;102369.31;;;-10.05;100.00
36062;BME280;22123;52.412;20.970;2024-01-10T04:32:26;102370.19;;;-10.03;100.00
36062;BME280;22123;52.412;20.970;2024-01-10T04:34:52;102358.84;;;-10.16;100.00
36062;BME280;22123;52.412;20.970;2024-01-10T04:37:18;102399.81;;;-9.86;100.00
36062;BME280;22123;52.412;20.970;2024-01-10T04:39:43;102393.66;;;-10.06;100.00
36062;BME280;22123;52.412;20.970;2024-01-10T04:42:10;102419.81;;;-9.80;100.00
36062;BME280;22123;52.412;20.970;2024-01-10T04:44:37;102418.91;;;-9.81;100.00
36062;BME280;22123;52.412;20.970;2024-01-10T04:47:03;102371.06;;;-10.06;100.00
36062;BME280;22123;52.412;20.970;2024-01-10T04:49:29;102403.28;;;-9.81;100.00
36062;BME280;22123;52.412;20.970;2024-01-10T04:51:55;102384.13;;;-9.95;100.00
36062;BME280;22123;52.412;20.970;2024-01-10T04:54:21;102381.50;;;-10.00;100.00
36062;BME280;22123;52.412;20.970;2024-01-10T04:56:47;102372.75;;;-10.14;100.00
36062;BME280;22123;52.412;20.970;2024-01-10T04:59:13;102414.53;;;-9.94;100.00
36062;BME280;22123;52.412;20.970;2024-01-10T05:01:39;102419.75;;;-9.94;100.00
36062;BME280;22123;52.412;20.970;2024-01-10T05:04:05;102389.28;;;-10.12;100.00
36062;BME280;22123;52.412;20.970;2024-01-10T05:06:31;102366.63;;;-10.24;100.00
36062;BME280;22123;52.412;20.970;2024-01-10T05:08:57;102387.50;;;-10.16;100.00
36062;BME280;22123;52.412;20.970;2024-01-10T05:11:23;102409.25;;;-10.09;100.00
36062;BME280;22123;52.412;20.970;2024-01-10T05:13:49;102417.09;;;-10.03;100.00
36062;BME280;22123;52.412;20.970;2024-01-10T05:16:15;102397.94;;;-10.11;100.00
36062;BME280;22123;52.412;20.970;2024-01-10T05:18:40;102404.91;;;-10.09;100.00
36062;BME280;22123;52.412;20.970;2024-01-10T05:21:06;102376.16;;;-10.27;100.00
36062;BME280;22123;52.412;20.970;2024-01-10T05:23:32;102420.59;;;-9.98;100.00
36062;BME280;22123;52.412;20.970;2024-01-10T05:25:58;102427.56;;;-9.94;100.00
36062;BME280;22123;52.412;20.970;2024-01-10T05:28:24;102434.53;;;-9.94;100.00
36062;BME280;22123;52.412;20.970;2024-01-10T05:30:50;102394.47;;;-10.12;100.00
36062;BME280;22123;52.412;20.970;2024-01-10T05:33:16;102426.69;;;-9.96;100.00
36062;BME280;22123;52.412;20.970;2024-01-10T05:35:42;102401.41;;;-10.09;100.00
36062;BME280;22123;52.412;20.970;2024-01-10T05:38:08;102402.31;;;-10.09;100.00
36062;BME280;22123;52.412;20.970;2024-01-10T05:40:34;102367.50;;;-10.20;100.00
36062;BME280;22123;52.412;20.970;2024-01-10T05:42:59;102404.94;;;-10.03;100.00
36062;BME280;22123;52.412;20.970;2024-01-10T05:45:26;102397.13;;;-10.04;100.00
36062;BME280;22123;52.412;20.970;2024-01-10T05:47:52;102257.88;;;-10.79;100.00
36062;BME280;22123;52.412;20.970;2024-01-10T05:50:18;102386.69;;;-10.07;100.00
36062;BME280;22123;52.412;20.970;2024-01-10T05:52:44;102394.53;;;-9.97;100.00
36062;BME280;22123;52.412;20.970;2024-01-10T05:55:10;102410.22;;;-9.84;100.00
36062;BME280;22123;52.412;20.970;2024-01-10T05:57:36;102380.63;;;-10.03;100.00
36062;BME280;22123;52.412;20.970;2024-01-10T06:00:03;102343.22;;;-10.21;100.00
36062;BME280;22123;52.412;20.970;2024-01-10T06:02:30;102358.88;;;-10.07;100.00
36062;BME280;22123;52.412;20.970;2024-01-10T06:04:55;102363.25;;;-10.01;100.00
36062;BME280;22123;52.412;20.970;2024-01-10T06:07:21;102351.97;;;-9.97;100.00
36062;BME280;22123;52.412;20.970;2024-01-10T06:09:47;102353.69;;;-10.05;100.00
36062;BME280;22123;52.412;20.970;2024-01-10T06:12:13;102353.72;;;-9.99;100.00
36062;BME280;22123;52.412;20.970;2024-01-10T06:14:39;102394.66;;;-9.61;100.00
36062;BME280;22123;52.412;20.970;2024-01-10T06:17:05;102342.38;;;-10.10;100.00
36062;BME280;22123;52.412;20.970;2024-01-10T06:19:31;102405.09;;;-9.58;100.00
36062;BME280;22123;52.412;20.970;2024-01-10T06:21:58;102348.53;;;-9.88;100.00
36062;BME280;22123;52.412;20.970;2024-01-10T06:24:24;102379.88;;;-9.68;100.00
36062;BME280;22123;52.412;20.970;2024-01-10T06:26:50;102410.38;;;-9.42;100.00
36062;BME280;22123;52.412;20.970;2024-01-10T06:29:16;102378.16;;;-9.54;100.00
36062;BME280;22123;52.412;20.970;2024-01-10T06:31:41;102359.03;;;-9.59;100.00
36062;BME280;22123;52.412;20.970;2024-01-10T06:34:08;102354.66;;;-9.63;100.00
36062;BME280;22123;52.412;20.970;2024-01-10T06:36:34;102426.91;;;-9.20;100.00
36062;BME280;22123;52.412;20.970;2024-01-10T06:39:00;102367.75;;;-9.52;100.00
36062;BME280;22123;52.412;20.970;2024-01-10T06:41:26;102376.47;;;-9.41;100.00
36062;BME280;22123;52.412;20.970;2024-01-10T06:43:52;102355.56;;;-9.64;100.00
36062;BME280;22123;52.412;20.970;2024-01-10T06:46:19;102422.56;;;-9.20;100.00
36062;BME280;22123;52.412;20.970;2024-01-10T06:48:45;102396.47;;;-9.37;100.00
36062;BME280;22123;52.412;20.970;2024-01-10T06:51:13;102406.91;;;-9.26;100.00
36062;BME280;22123;52.412;20.970;2024-01-10T06:53:40;102378.22;;;-9.35;100.00
36062;BME280;22123;52.412;20.970;2024-01-10T06:56:06;102373.00;;;-9.35;100.00
36062;BME280;22123;52.412;20.970;2024-01-10T06:58:33;102373.00;;;-9.28;100.00
36062;BME280;22123;52.412;20.970;2024-01-10T07:00:59;102440.84;;;-9.00;100.00
36062;BME280;22123;52.412;20.970;2024-01-10T07:03:25;102389.50;;;-9.30;100.00
36062;BME280;22123;52.412;20.970;2024-01-10T07:05:50;102389.53;;;-9.16;100.00
36062;BME280;22123;52.412;20.970;2024-01-10T07:08:16;102387.78;;;-9.19;100.00
36062;BME280;22123;52.412;20.970;2024-01-10T07:10:42;102363.44;;;-9.18;100.00
36062;BME280;22123;52.412;20.970;2024-01-10T07:13:08;102382.56;;;-9.13;100.00
36062;BME280;22123;52.412;20.970;2024-01-10T07:15:34;102386.91;;;-9.09;100.00
36062;BME280;22123;52.412;20.970;2024-01-10T07:18:00;102380.81;;;-9.03;100.00
36062;BME280;22123;52.412;20.970;2024-01-10T07:20:26;102388.66;;;-9.01;100.00
36062;BME280;22123;52.412;20.970;2024-01-10T07:22:52;102390.41;;;-9.02;100.00
36062;BME280;22123;52.412;20.970;2024-01-10T07:25:17;102413.88;;;-8.89;100.00
36062;BME280;22123;52.412;20.970;2024-01-10T07:27:44;102369.50;;;-9.19;100.00
36062;BME280;22123;52.412;20.970;2024-01-10T07:30:10;102335.56;;;-9.36;100.00
36062;BME280;22123;52.412;20.970;2024-01-10T07:32:36;102364.28;;;-9.19;100.00
36062;BME280;22123;52.412;20.970;2024-01-10T07:35:02;102406.94;;;-8.89;100.00
36062;BME280;22123;52.412;20.970;2024-01-10T07:37:28;102406.91;;;-8.92;100.00
36062;BME280;22123;52.412;20.970;2024-01-10T07:39:53;102411.28;;;-8.83;100.00
36062;BME280;22123;52.412;20.970;2024-01-10T07:42:19;102357.31;;;-9.17;100.00
36062;BME280;22123;52.412;20.970;2024-01-10T07:44:45;102361.69;;;-9.03;100.00
36062;BME280;22123;52.412;20.970;2024-01-10T07:47:11;102370.38;;;-8.92;100.00
36062;BME280;22123;52.412;20.970;2024-01-10T07:49:37;102401.69;;;-8.74;100.00
36062;BME280;22123;52.412;20.970;2024-01-10T07:52:03;102393.00;;;-8.86;100.00
36062;BME280;22123;52.412;20.970;2024-01-10T07:54:29;102392.13;;;-8.79;100.00
36062;BME280;22123;52.412;20.970;2024-01-10T07:56:55;102392.13;;;-8.71;100.00
36062;BME280;22123;52.412;20.970;2024-01-10T07:59:21;102386.91;;;-8.78;100.00
36062;BME280;22123;52.412;20.970;2024-01-10T08:01:55;102358.22;;;-8.90;100.00
36062;BME280;22123;52.412;20.970;2024-01-10T08:04:21;102375.63;;;-8.89;100.00
36062;BME280;22123;52.412;20.970;2024-01-10T08:06:47;102346.91;;;-9.03;100.00
36062;BME280;22123;52.412;20.970;2024-01-10T08:09:13;102405.16;;;-8.50;100.00
36062;BME280;22123;52.412;20.970;2024-01-10T08:11:38;102409.50;;;-8.46;100.00
36062;BME280;22123;52.412;20.970;2024-01-10T08:14:04;102379.91;;;-8.62;100.00
36062;BME280;22123;52.412;20.970;2024-01-10T08:16:30;102415.53;;;-8.38;100.00
36062;BME280;22123;52.412;20.970;2024-01-10T08:18:56;102363.41;;;-8.73;100.00
36062;BME280;22123;52.412;20.970;2024-01-10T08:21:22;102385.16;;;-8.65;100.00
36062;BME280;22123;52.412;20.970;2024-01-10T08:23:48;102386.88;;;-8.58;100.00
36062;BME280;22123;52.412;20.970;2024-01-10T08:26:14;102386.00;;;-8.57;100.00
36062;BME280;22123;52.412;20.970;2024-01-10T08:28:40;102377.31;;;-8.51;100.00
36062;BME280;22123;52.412;20.970;2024-01-10T08:31:07;102390.31;;;-8.43;100.00
36062;BME280;22123;52.412;20.970;2024-01-10T08:33:33;102383.28;;;-8.29;100.00
36062;BME280;22123;52.412;20.970;2024-01-10T08:35:58;102304.19;;;-8.57;100.00
36062;BME280;22123;52.412;20.970;2024-01-10T08:38:24;102365.00;;;-8.27;100.00
36062;BME280;22123;52.412;20.970;2024-01-10T08:40:50;102351.09;;;-8.32;100.00
36062;BME280;22123;52.412;20.970;2024-01-10T08:43:16;102390.16;;;-7.97;100.00
36062;BME280;22123;52.412;20.970;2024-01-10T08:45:42;102413.66;;;-7.88;100.00
36062;BME280;22123;52.412;20.970;2024-01-10T08:48:08;102426.75;;;-7.92;100.00
36062;BME280;22123;52.412;20.970;2024-01-10T08:50:34;102398.91;;;-8.09;100.00
36062;BME280;22123;52.412;20.970;2024-01-10T08:53:00;102433.69;;;-7.83;100.00
36062;BME280;22123;52.412;20.970;2024-01-10T08:55:25;102423.19;;;-7.74;100.00
36062;BME280;22123;52.412;20.970;2024-01-10T08:57:51;102387.50;;;-7.86;100.00
36062;BME280;22123;52.412;20.970;2024-01-10T09:00:17;102417.91;;;-7.65;100.00
36062;BME280;22123;52.412;20.970;2024-01-10T09:02:43;102367.50;;;-7.95;100.00
36062;BME280;22123;52.412;20.970;2024-01-10T09:05:09;102410.03;;;-7.60;100.00
36062;BME280;22123;52.412;20.970;2024-01-10T09:07:36;102391.78;;;-7.70;100.00
36062;BME280;22123;52.412;20.970;2024-01-10T09:10:02;102379.56;;;-7.66;100.00
36062;BME280;22123;52.412;20.970;2024-01-10T09:12:27;102403.03;;;-7.55;100.00
36062;BME280;22123;52.412;20.970;2024-01-10T09:14:53;102373.53;;;-7.79;100.00
36062;BME280;22123;52.412;20.970;2024-01-10T09:17:19;102403.00;;;-7.51;100.00
36062;BME280;22123;52.412;20.970;2024-01-10T09:19:45;102419.50;;;-7.36;100.00
36062;BME280;22123;52.412;20.970;2024-01-10T09:22:11;102377.81;;;-7.65;100.00
36062;BME280;22123;52.412;20.970;2024-01-10T09:24:37;102397.75;;;-7.47;100.00
36062;BME280;22123;52.412;20.970;2024-01-10T09:27:03;102403.00;;;-7.47;100.00
36062;BME280;22123;52.412;20.970;2024-01-10T09:29:32;102429.94;;;-7.33;100.00
36062;BME280;22123;52.412;20.970;2024-01-10T09:31:58;102431.59;;;-7.21;100.00
36062;BME280;22123;52.412;20.970;2024-01-10T09:34:23;102376.69;;;-7.27;100.00
36062;BME280;22123;52.412;20.970;2024-01-10T09:36:49;102361.00;;;-7.30;100.00
36062;BME280;22123;52.412;20.970;2024-01-10T09:39:15;102424.56;;;-7.05;100.00
36062;BME280;22123;52.412;20.970;2024-01-10T09:41:46;102375.88;;;-7.32;100.00
36062;BME280;22123;52.412;20.970;2024-01-10T09:44:12;102355.00;;;-7.43;100.00
36062;BME280;22123;52.412;20.970;2024-01-10T09:46:40;102377.59;;;-7.27;100.00
36062;BME280;22123;52.412;20.970;2024-01-10T09:49:09;102362.81;;;-7.34;100.00
36062;BME280;22123;52.412;20.970;2024-01-10T09:51:35;102388.00;;;-7.19;100.00
36062;BME280;22123;52.412;20.970;2024-01-10T09:54:03;102405.25;;;-6.93;100.00
36062;BME280;22123;52.412;20.970;2024-01-10T09:56:30;102390.50;;;-7.04;100.00
36062;BME280;22123;52.412;20.970;2024-01-10T09:58:58;102394.03;;;-7.08;100.00
36062;BME280;22123;52.412;20.970;2024-01-10T10:01:25;102377.41;;;-7.04;100.00
36062;BME280;22123;52.412;20.970;2024-01-10T10:03:51;102359.16;;;-7.16;100.00
36062;BME280;22123;52.412;20.970;2024-01-10T10:06:17;102395.72;;;-7.07;100.00
36062;BME280;22123;52.412;20.970;2024-01-10T10:08:43;102361.06;;;-7.37;100.00
36062;BME280;22123;52.412;20.970;2024-01-10T10:11:13;102417.50;;;-7.00;100.00
36062;BME280;22123;52.412;20.970;2024-01-10T10:13:39;102352.28;;;-7.28;100.00
36062;BME280;22123;52.412;20.970;2024-01-10T10:16:05;102383.53;;;-7.08;100.00
36062;BME280;22123;52.412;20.970;2024-01-10T10:18:31;102360.03;;;-7.19;100.00
36062;BME280;22123;52.412;20.970;2024-01-10T10:21:10;102406.03;;;-6.84;100.00
36062;BME280;22123;52.412;20.970;2024-01-10T10:23:38;102373.09;;;-7.11;100.00
36062;BME280;22123;52.412;20.970;2024-01-10T10:26:17;102346.16;;;-7.30;100.00
36062;BME280;22123;52.412;20.970;2024-01-10T10:28:43;102383.50;;;-7.05;100.00
36062;BME280;22123;52.412;20.970;2024-01-10T10:31:10;102351.31;;;-7.16;100.00
36062;BME280;22123;52.412;20.970;2024-01-10T10:33:36;102393.69;;;-6.69;100.00
36062;BME280;22123;52.412;20.970;2024-01-10T10:36:02;102394.66;;;-6.79;100.00
36062;BME280;22123;52.412;20.970;2024-01-10T10:38:28;102386.00;;;-6.86;100.00
36062;BME280;22123;52.412;20.970;2024-01-10T10:40:55;102399.88;;;-6.79;100.00
36062;BME280;22123;52.412;20.970;2024-01-10T10:43:21;102354.78;;;-7.16;100.00
36062;BME280;22123;52.412;20.970;2024-01-10T10:45:49;102359.06;;;-7.01;100.00
36062;BME280;22123;52.412;20.970;2024-01-10T10:48:19;102351.16;;;-6.96;100.00
36062;BME280;22123;52.412;20.970;2024-01-10T10:51:05;102372.00;;;-6.85;100.00
36062;BME280;22123;52.412;20.970;2024-01-10T10:53:31;102373.63;;;-6.75;100.00
36062;BME280;22123;52.412;20.970;2024-01-10T10:55:59;102340.72;;;-7.01;100.00
36062;BME280;22123;52.412;20.970;2024-01-10T10:58:26;102305.09;;;-7.20;100.00
36062;BME280;22123;52.412;20.970;2024-01-10T11:00:52;102373.69;;;-6.79;100.00
36062;BME280;22123;52.412;20.970;2024-01-10T11:03:18;102329.28;;;-6.92;100.00
36062;BME280;22123;52.412;20.970;2024-01-10T11:05:45;102314.59;;;-7.05;100.00
36062;BME280;22123;52.412;20.970;2024-01-10T11:08:14;102309.34;;;-7.08;100.00
36062;BME280;22123;52.412;20.970;2024-01-10T11:10:42;102324.97;;;-6.96;100.00
36062;BME280;22123;52.412;20.970;2024-01-10T11:13:33;102310.16;;;-7.02;100.00
36062;BME280;22123;52.412;20.970;2024-01-10T11:19:13;102318.63;;;-6.72;100.00
36062;BME280;22123;52.412;20.970;2024-01-10T11:24:14;102297.78;;;-6.84;100.00
36062;BME280;22123;52.412;20.970;2024-01-10T11:26:39;102290.88;;;-6.91;100.00
36062;BME280;22123;52.412;20.970;2024-01-10T11:29:05;102327.09;;;-6.48;100.00
36062;BME280;22123;52.412;20.970;2024-01-10T11:31:32;102295.88;;;-6.68;100.00
36062;BME280;22123;52.412;20.970;2024-01-10T11:34:01;102330.63;;;-6.52;100.00
36062;BME280;22123;52.412;20.970;2024-01-10T11:36:27;102263.88;;;-6.96;100.00
36062;BME280;22123;52.412;20.970;2024-01-10T11:41:26;102329.81;;;-6.57;100.00
36062;BME280;22123;52.412;20.970;2024-01-10T11:46:46;102276.88;;;-6.87;100.00
36062;BME280;22123;52.412;20.970;2024-01-10T11:49:14;102302.06;;;-6.75;100.00
36062;BME280;22123;52.412;20.970;2024-01-10T11:51:44;102313.44;;;-6.78;100.00
36062;BME280;22123;52.412;20.970;2024-01-10T11:54:11;102294.31;;;-6.85;100.00
36062;BME280;22123;52.412;20.970;2024-01-10T11:56:46;102329.84;;;-6.59;100.00
36062;BME280;22123;52.412;20.970;2024-01-10T11:59:13;102319.34;;;-6.60;100.00
36062;BME280;22123;52.412;20.970;2024-01-10T12:01:41;102340.19;;;-6.47;100.00
36062;BME280;22123;52.412;20.970;2024-01-10T12:04:07;102283.66;;;-6.71;100.00
36062;BME280;22123;52.412;20.970;2024-01-10T12:06:37;102275.94;;;-6.82;100.00
36062;BME280;22123;52.412;20.970;2024-01-10T12:09:04;102293.25;;;-6.70;100.00
36062;BME280;22123;52.412;20.970;2024-01-10T12:11:30;102326.22;;;-6.47;100.00
36062;BME280;22123;52.412;20.970;2024-01-10T12:13:56;102302.72;;;-6.56;100.00
36062;BME280;22123;52.412;20.970;2024-01-10T12:16:23;102333.94;;;-6.35;100.00
36062;BME280;22123;52.412;20.970;2024-01-10T12:18:49;102279.22;;;-6.62;100.00
36062;BME280;22123;52.412;20.970;2024-01-10T12:21:15;102314.66;;;-6.31;100.00
36062;BME280;22123;52.412;20.970;2024-01-10T12:23:41;102287.66;;;-6.39;100.00
36062;BME280;22123;52.412;20.970;2024-01-10T12:26:08;102272.88;;;-6.44;100.00
36062;BME280;22123;52.412;20.970;2024-01-10T12:28:37;102237.28;;;-6.61;100.00
36062;BME280;22123;52.412;20.970;2024-01-10T12:31:03;102294.53;;;-6.29;100.00
36062;BME280;22123;52.412;20.970;2024-01-10T12:33:31;102252.94;;;-6.58;100.00
36062;BME280;22123;52.412;20.970;2024-01-10T12:38:28;102288.47;;;-6.32;100.00